Nikolai Kuropatkin — UFOM — position and weather

sailwx.info

Track history (hours):
 
Tides and Currents Weather Stations Pressure Air Temp Water Temp Dewpoint Dewpoint Depression Visibility Wind Speed Wind Dir Waves Ship Positions

Oceanographic research ship Nikolai Kuropatkin (Russia)

Detailed information on ship capabilities available from University of Delaware's Ocean Information Center.

Last reported at 2017-Nov-19 02:03 UTC. Time now 2017-Nov-21 08:20 UTC.
Position N 38°56' E 121°37'.

Length 94 m; draft 6 m.

Type: Fishing. MMSI: 273219500.

Date/timePositionNaut miles runAvg speedWind from/ knotsBaromVisibWave heightAir tempDewpointWater temp
2017-Nov-19 02:03N 38°56' E 121°37'1 5.7
2017-Nov-19 01:48N 38°57' E 121°38'9 8.2
2017-Nov-19 00:42N 38°52' E 121°48'2 9.5
2017-Nov-19 00:30N 38°51' E 121°49'8 8.5
2017-Nov-18 23:35N 38°54' E 121°58'1 0.1
2017-Nov-18 04:24N 38°52' E 121°59'410.5
2017-Nov-18 04:00N 38°51' E 121°54'510.9
2017-Nov-18 03:30N 38°50' E 121°47'3 4.3
2017-Nov-18 02:49N 38°53' E 121°47'2 6.6
2017-Nov-18 02:30N 38°51' E 121°48'3 5.5
2017-Nov-18 02:00N 38°48' E 121°50'4 7.0
2017-Nov-18 01:29N 38°49' E 121°54'7 0.8
2017-Nov-17 17:00N 38°53' E 122°01'15 1.1
2017-Nov-17 03:10N 38°39' E 122°03'  
Track history (hours):
 
Tides and Currents Weather Stations Pressure Air Temp Water Temp Dewpoint Dewpoint Depression Visibility Wind Speed Wind Dir Waves Ship Positions

Oceanographic research ship Nikolai Kuropatkin (Russia)

Detailed information on ship capabilities available from University of Delaware's Ocean Information Center.

Last reported at 2017-Nov-19 02:03 UTC. Time now 2017-Nov-21 08:20 UTC.
Position N 38°56' E 121°37'.

Length 94 m; draft 6 m.

Type: Fishing. MMSI: 273219500.

Date/timePositionNaut miles runAvg speedWind from/ knotsBaromVisibWave heightAir tempDewpointWater temp
2017-Nov-19 02:03N 38°56' E 121°37'1 5.7
2017-Nov-19 01:48N 38°57' E 121°38'9 8.2
2017-Nov-19 00:42N 38°52' E 121°48'2 9.5
2017-Nov-19 00:30N 38°51' E 121°49'8 8.5
2017-Nov-18 23:35N 38°54' E 121°58'1 0.1
2017-Nov-18 04:24N 38°52' E 121°59'410.5
2017-Nov-18 04:00N 38°51' E 121°54'510.9
2017-Nov-18 03:30N 38°50' E 121°47'3 4.3
2017-Nov-18 02:49N 38°53' E 121°47'2 6.6
2017-Nov-18 02:30N 38°51' E 121°48'3 5.5
2017-Nov-18 02:00N 38°48' E 121°50'4 7.0
2017-Nov-18 01:29N 38°49' E 121°54'7 0.8
2017-Nov-17 17:00N 38°53' E 122°01'15 1.1
2017-Nov-17 03:10N 38°39' E 122°03'  

Dump ship's entire track history